ADDS METAR Data INFO
IDs: Format: Raw Decoded Include TAF

Data at: 1122 UTC 17 Jul 2018

K4A6 171115Z AUTO 00000KT 9SM OVC013 23/23 A3003 RMK AO2
K4A6 171055Z AUTO 00000KT 4SM BR SCT013 23/23 A3003 RMK AO2
K4A6 171035Z AUTO 00000KT 9SM CLR 23/23 A3002 RMK AO2
K4A6 171015Z AUTO 00000KT 10SM CLR 22/22 A3002 RMK AO2
K4A6 170955Z AUTO 00000KT 10SM CLR 22/22 A3001 RMK AO2
K4A6 170935Z AUTO 00000KT 10SM SCT021 23/23 A3000 RMK AO2
K4A6 170915Z AUTO 00000KT 10SM BKN022 23/23 A3001 RMK AO2
K4A6 170855Z AUTO 00000KT 10SM SCT024 23/23 A3000 RMK AO2
K4A6 170835Z AUTO 00000KT 10SM CLR 23/23 A3000 RMK AO2
K4A6 170815Z AUTO 00000KT 10SM FEW026 23/23 A3001 RMK AO2
K4A6 170755Z AUTO 00000KT 10SM BKN026 23/23 A3001 RMK AO2
K4A6 170735Z AUTO 00000KT 9SM FEW020 BKN026 23/23 A3001 RMK AO2
K4A6 170715Z AUTO 00000KT 10SM SCT020 OVC029 24/24 A3001 RMK AO2
K4A6 170655Z AUTO 00000KT 10SM SCT019 OVC031 24/24 A3002 RMK AO2
K4A6 170635Z AUTO 00000KT 9SM SCT018 OVC031 24/24 A3002 RMK AO2
K4A6 170615Z AUTO 00000KT 9SM 24/24 A3002 RMK AO2
K4A6 170555Z AUTO 00000KT 10SM 24/24 A3001 RMK AO2
K4A6 170535Z AUTO 00000KT 9SM CLR 24/24 A3001 RMK AO2
K4A6 170515Z AUTO 00000KT 7SM CLR 24/24 A3001 RMK AO2
K4A6 170455Z AUTO 00000KT 10SM CLR 24/24 A3001 RMK AO2
K4A6 170435Z AUTO 00000KT 10SM FEW026 FEW037 25/25 A3001 RMK AO2
K4A6 170415Z AUTO 00000KT 10SM FEW027 25/25 A3002 RMK AO2
K4A6 170355Z AUTO 00000KT 10SM CLR 25/25 A3003 RMK AO2
K4A6 170335Z AUTO 00000KT 10SM CLR 25/25 A3003 RMK AO2
K4A6 170315Z AUTO 00000KT 10SM CLR 25/25 A3003 RMK AO2
K4A6 170255Z AUTO 00000KT 10SM CLR 25/25 A3002 RMK AO2
K4A6 170235Z AUTO 00000KT 10SM CLR 26/26 A3002 RMK AO2
K4A6 170215Z AUTO 00000KT 10SM CLR 26/26 A3002 RMK AO2
K4A6 170155Z AUTO 00000KT 10SM CLR 26/26 A3002 RMK AO2
K4A6 170135Z AUTO 00000KT 10SM CLR 27/25 A3001 RMK AO2 LTG DSNT NE AND SE
K4A6 170115Z AUTO 22003KT 10SM CLR 27/25 A3001 RMK AO2 LTG DSNT NE AND SW
K4A6 170055Z AUTO 00000KT 10SM FEW037 28/25 A2999 RMK AO2 LTG DSNT NE
K4A6 170035Z AUTO VRB03KT 10SM SCT038 28/24 A2999 RMK AO2
K4A6 170015Z AUTO VRB03KT 10SM CLR 29/24 A2998 RMK AO2
K4A6 162355Z AUTO VRB04KT 10SM CLR 30/25 A2998 RMK AO2
K4A6 162335Z AUTO 23006KT 10SM FEW045 30/24 A2998 RMK AO2
K4A6 162315Z AUTO 27005KT 10SM SCT037 BKN043 BKN048 31/23 A2998 RMK AO2
K4A6 162255Z AUTO VRB03KT 10SM SCT037 BKN046 31/23 A2997 RMK AO2
K4A6 162235Z AUTO 23004KT 10SM CLR 31/23 A2997 RMK AO2
K4A6 162215Z AUTO 28003KT 10SM CLR 31/23 A2997 RMK AO2
K4A6 162155Z AUTO 29004KT 10SM CLR 31/23 A2997 RMK AO2
K4A6 162135Z AUTO VRB03KT 10SM CLR 31/23 A2997 RMK AO2
K4A6 162115Z AUTO 00000KT 10SM CLR 31/22 A2996 RMK AO2
K4A6 162055Z AUTO 23005KT 10SM CLR 30/23 A2996 RMK AO2
K4A6 162035Z AUTO 30005KT 10SM CLR 30/24 A2997 RMK AO2
K4A6 162015Z AUTO VRB05KT 10SM FEW028 30/24 A2999 RMK AO2
K4A6 161955Z AUTO VRB04KT 10SM CLR 30/24 A3000 RMK AO2
K4A6 161935Z AUTO 29006KT 10SM CLR 29/23 A3001 RMK AO2
K4A6 161915Z AUTO 27007KT 10SM CLR 29/24 A3002 RMK AO2
K4A6 161855Z AUTO 27006KT 10SM FEW025 29/24 A3004 RMK AO2
K4A6 161835Z AUTO 24006KT 10SM 29/24 A3004 RMK AO2
K4A6 161815Z AUTO 26005KT 10SM 30/24 A3005 RMK AO2
K4A6 161755Z AUTO VRB06KT 10SM BKN026 BKN031 29/24 A3005 RMK AO2
K4A6 161735Z AUTO 24005KT 10SM 29/23 A3005 RMK AO2
K4A6 161715Z AUTO 21006KT 10SM 29/24 A3006 RMK AO2
K4A6 161655Z AUTO 26006KT 10SM 29/24 A3006 RMK AO2
K4A6 161635Z AUTO VRB04KT 9SM 29/24 A3007 RMK AO2
K4A6 161615Z AUTO 23006KT 10SM CLR 29/24 A3007 RMK AO2
K4A6 161555Z AUTO 24006KT 10SM SCT021 SCT027 28/24 A3007 RMK AO2
K4A6 161535Z AUTO 28006KT 5SM HZ FEW017 BKN023 BKN037 29/25 A3008 RMK AO2
K4A6 161515Z AUTO 00000KT 2SM HZ SCT016 SCT023 SCT037 28/25 A3007 RMK AO2 VIS 1 1/2V3
K4A6 161455Z AUTO 00000KT 2SM BR SCT015 27/25 A3008 RMK AO2
K4A6 161435Z AUTO 24005KT 2SM BR FEW015 27/25 A3008 RMK AO2 LTG DSNT SW VIS 1 1/4V4
K4A6 161415Z AUTO 21003KT 3SM BR BKN015 26/25 A3008 RMK AO2
K4A6 161355Z AUTO 00000KT 7SM OVC012 26/25 A3008 RMK AO2
K4A6 161335Z AUTO 28005KT 7SM OVC011 26/25 A3008 RMK AO2 LTG DSNT W
K4A6 161315Z AUTO 29004KT 6SM BR OVC011 25/25 A3007 RMK AO2 LTG DSNT W
K4A6 161255Z AUTO 00000KT 6SM BR OVC010 25/25 A3006 RMK AO2 LTG DSNT W
K4A6 161235Z AUTO 00000KT 9SM BKN011 25/25 A3006 RMK AO2 LTG DSNT W
K4A6 161215Z AUTO 00000KT 9SM BKN011 24/24 A3006 RMK AO2 LTG DSNT W
K4A6 161155Z AUTO 00000KT 9SM BKN011 24/24 A3006 RMK AO2
K4A6 161135Z AUTO 00000KT 10SM OVC012 24/24 A3005 RMK AO2
K4A6 161115Z AUTO 00000KT 7SM FEW006 BKN012 24/24 A3004 RMK AO2
K4A6 161055Z AUTO 00000KT 9SM SCT006 SCT013 24/24 A3004 RMK AO2
K4A6 161035Z AUTO 00000KT 9SM FEW006 SCT013 24/24 A3003 RMK AO2
K4A6 161015Z AUTO 00000KT 9SM FEW007 FEW011 24/24 A3003 RMK AO2
K4A6 160955Z AUTO 00000KT 9SM FEW007 24/24 A3003 RMK AO2
K4A6 160935Z AUTO 00000KT 9SM CLR 24/24 A3003 RMK AO2
K4A6 160915Z AUTO 00000KT 10SM CLR 23/23 A3003 RMK AO2
K4A6 160855Z AUTO 00000KT 9SM FEW013 23/23 A3002 RMK AO2
K4A6 160835Z AUTO 00000KT 10SM CLR 23/23 A3002 RMK AO2
K4A6 160815Z AUTO 00000KT 10SM CLR 23/23 A3002 RMK AO2
K4A6 160755Z AUTO 00000KT 10SM CLR 23/23 A3001 RMK AO2
K4A6 160735Z AUTO 00000KT 10SM CLR 24/24 A3002 RMK AO2
K4A6 160715Z AUTO 00000KT 10SM FEW018 24/24 A3002 RMK AO2
K4A6 160655Z AUTO 00000KT 10SM CLR 24/24 A3003 RMK AO2
K4A6 160635Z AUTO 00000KT 10SM FEW004 FEW018 24/24 A3003 RMK AO2
K4A6 160615Z AUTO 00000KT 10SM FEW004 BKN017 BKN038 24/24 A3004 RMK AO2
K4A6 160555Z AUTO 00000KT 10SM OVC015 24/24 A3004 RMK AO2 P0002
K4A6 160535Z AUTO 00000KT 10SM BKN015 BKN045 24/24 A3004 RMK AO2
K4A6 160515Z AUTO 00000KT 8SM CLR 24/24 A3005 RMK AO2
K4A6 160455Z AUTO 00000KT 10SM CLR 24/24 A3004 RMK AO2
K4A6 160435Z AUTO 00000KT 10SM FEW120 24/24 A3005 RMK AO2
K4A6 160415Z AUTO 00000KT 10SM FEW120 24/24 A3005 RMK AO2
K4A6 160355Z AUTO 00000KT 10SM CLR 24/24 A3005 RMK AO2
K4A6 160335Z AUTO 00000KT 10SM CLR 24/24 A3005 RMK AO2
K4A6 160315Z AUTO 00000KT 10SM 25/25 A3005 RMK AO2 LTG DSNT SE
K4A6 160255Z AUTO 00000KT 10SM CLR 25/25 A3005 RMK AO2
K4A6 160235Z AUTO 00000KT 10SM CLR 25/25 A3004 RMK AO2
K4A6 160215Z AUTO 00000KT 10SM CLR 25/25 A3004 RMK AO2
K4A6 160155Z AUTO 00000KT 10SM CLR 25/25 A3003 RMK AO2
K4A6 160135Z AUTO 00000KT 10SM CLR 25/25 A3003 RMK AO2
K4A6 160115Z AUTO 00000KT 10SM CLR 26/26 A3002 RMK AO2
K4A6 160055Z AUTO 00000KT 10SM CLR 26/26 A3002 RMK AO2 LTG DSNT SW
K4A6 160035Z AUTO 00000KT 10SM CLR 26/25 A3003 RMK AO2
K4A6 160015Z AUTO 05004KT 10SM CLR 27/25 A3002 RMK AO2
K4A6 152355Z AUTO 00000KT 10SM CLR 27/26 A3002 RMK AO2 P0001
K4A6 152335Z AUTO 36004KT 10SM CLR 28/25 A3001 RMK AO2